Eddyville, Illinois
Current Conditions -  °F | °C
As of 3:15 AM on Wednesday 28 Jan 2015 (Local Time) from KHSB Reporting Station
Clear Clear  
Wind Chill: 24°   Ceiling: Unl
Heat Index: 29°   Visibility: 10mi
Dew Point: 28°   Wind: 5mph
Humidity: 95%   Direction: 80°E
Pressure: 30.29"   Gusts: NA
Location:  37.5°N, 88.59°W
Report Text: KHSB 280915Z AUTO 08004KT 10SM CLR M02/M02 A3029 RMK AO2 T10161023
Loading
Personal Weather Stations






























Interactive Weather Map New forecast layout! Learn more

10-Day Weather Forecast

Advertisements
Track Severe Weather on mobile